createdAt,value
2022-08-07T00:02:36.921Z,99618.97
2022-08-07T00:05:12.171Z,99609.16
2022-08-07T00:08:44.255Z,99619.41
2022-08-07T00:11:54.089Z,99634.56
2022-08-07T00:15:12.251Z,99632.06
2022-08-07T00:18:18.835Z,99629.31
2022-08-07T00:21:55.538Z,99622.25
2022-08-07T00:24:33.390Z,99623.19
2022-08-07T00:27:56.651Z,99615.19
2022-08-07T00:31:06.215Z,99616.94
2022-08-07T00:34:08.539Z,99592.03
2022-08-07T00:37:04.865Z,99611.56
2022-08-07T00:40:00.936Z,99614.31
2022-08-07T00:42:55.203Z,99608.00
2022-08-07T00:45:49.977Z,99618.56
2022-08-07T00:48:52.402Z,99619.13
2022-08-07T00:51:57.403Z,99619.50
2022-08-07T00:54:54.297Z,99605.91
2022-08-07T00:57:56.066Z,99618.25
2022-08-07T01:00:53.982Z,99615.97
2022-08-07T01:03:56.552Z,99606.09
2022-08-07T01:06:57.210Z,99620.84
2022-08-07T01:10:05.737Z,99604.19
2022-08-07T01:13:03.341Z,99620.47
2022-08-07T01:16:05.916Z,99621.28
2022-08-07T01:19:00.677Z,99618.00
2022-08-07T01:22:03.294Z,99623.28
2022-08-07T01:24:58.863Z,99618.78
2022-08-07T01:27:53.650Z,99611.28
2022-08-07T01:30:51.997Z,99630.69
2022-08-07T01:33:53.773Z,99630.47
2022-08-07T01:36:57.706Z,99600.50
2022-08-07T01:39:53.526Z,99605.94
2022-08-07T01:42:58.793Z,99606.41
2022-08-07T01:45:54.467Z,99625.59
2022-08-07T01:48:48.790Z,99605.84
2022-08-07T01:52:02.015Z,99618.25
2022-08-07T01:55:06.454Z,99599.78
2022-08-07T01:58:27.230Z,99612.25
2022-08-07T02:01:59.355Z,99612.91
2022-08-07T02:04:38.686Z,99608.44
2022-08-07T02:07:50.191Z,99608.25
2022-08-07T02:11:31.050Z,99612.78
2022-08-07T02:14:36.599Z,99610.25
2022-08-07T02:17:36.852Z,99605.44
2022-08-07T02:20:33.711Z,99599.69
2022-08-07T02:23:31.280Z,99602.94
2022-08-07T02:30:12.746Z,99584.72
2022-08-07T02:33:10.714Z,99579.06
2022-08-07T02:36:29.844Z,99601.72
2022-08-07T02:39:43.567Z,99597.25
2022-08-07T02:42:41.597Z,99593.50
2022-08-07T02:46:01.649Z,99596.00
2022-08-07T02:48:57.494Z,99592.28
2022-08-07T02:51:53.013Z,99593.06
2022-08-07T02:54:49.951Z,99593.56
2022-08-07T02:57:49.302Z,99585.34
2022-08-07T03:00:47.523Z,99590.84
2022-08-07T03:03:50.866Z,99591.06
2022-08-07T03:06:49.669Z,99592.81
2022-08-07T03:13:49.322Z,99585.78
2022-08-07T03:16:44.459Z,99583.47
2022-08-07T03:19:39.577Z,99582.66
2022-08-07T03:22:34.884Z,99583.41
2022-08-07T03:25:40.440Z,99595.34
2022-08-07T03:28:41.666Z,99598.31
2022-08-07T03:31:43.288Z,99591.69
2022-08-07T03:34:47.163Z,99587.97
2022-08-07T03:37:59.775Z,99592.63
2022-08-07T03:40:57.837Z,99598.78
2022-08-07T03:44:16.231Z,99593.44
2022-08-07T03:47:22.964Z,99599.59
2022-08-07T03:50:19.622Z,99593.25
2022-08-07T03:53:19.931Z,99596.81
2022-08-07T03:56:37.896Z,99586.47
2022-08-07T03:59:32.766Z,99587.63
2022-08-07T04:02:32.566Z,99602.47
2022-08-07T04:05:40.647Z,99601.56
2022-08-07T04:08:47.211Z,99577.31
2022-08-07T04:12:23.896Z,99579.94
2022-08-07T04:15:00.299Z,99587.47
2022-08-07T04:18:56.471Z,99600.28
2022-08-07T04:21:16.446Z,99574.91
2022-08-07T04:24:30.535Z,99584.38
2022-08-07T04:27:27.573Z,99591.22
2022-08-07T04:30:39.464Z,99600.72
2022-08-07T04:33:39.467Z,99585.09
2022-08-07T04:36:35.056Z,99599.16
2022-08-07T04:39:35.815Z,99577.69
2022-08-07T04:42:31.572Z,99603.88
2022-08-07T04:45:57.956Z,99611.63
2022-08-07T04:49:17.564Z,99601.75
2022-08-07T04:52:51.201Z,99588.91
2022-08-07T04:58:15.263Z,99593.13
2022-08-07T05:00:10.907Z,99599.41
2022-08-07T05:02:59.242Z,99608.75
2022-08-07T05:06:20.456Z,99589.84
2022-08-07T05:09:43.480Z,99580.47
2022-08-07T05:12:52.800Z,99599.66
2022-08-07T05:15:51.391Z,99584.91
2022-08-07T05:18:53.209Z,99598.69
2022-08-07T05:22:00.752Z,99587.06
2022-08-07T05:28:16.785Z,99581.19
2022-08-07T05:31:37.950Z,99600.84
2022-08-07T05:34:32.893Z,99604.84
2022-08-07T05:37:30.750Z,99579.91
2022-08-07T05:40:35.348Z,99592.47
2022-08-07T05:44:08.521Z,99596.81
2022-08-07T05:47:18.238Z,99572.00
2022-08-07T05:57:30.031Z,99586.63
2022-08-07T06:00:39.604Z,99575.72
2022-08-07T06:03:53.686Z,99589.84
2022-08-07T06:10:44.144Z,99580.44
2022-08-07T06:14:12.502Z,99571.41
2022-08-07T06:16:57.283Z,99592.56
2022-08-07T06:20:03.919Z,99589.25
2022-08-07T06:23:02.134Z,99574.97
2022-08-07T06:26:12.272Z,99582.44
2022-08-07T06:32:46.784Z,99575.28
2022-08-07T06:35:47.917Z,99571.38
2022-08-07T06:40:13.188Z,99565.97
2022-08-07T06:42:32.865Z,99568.91
2022-08-07T06:45:45.717Z,99563.34
2022-08-07T06:48:38.241Z,99582.44
2022-08-07T07:12:36.970Z,99586.97
2022-08-07T07:15:45.708Z,99569.38
2022-08-07T07:19:11.293Z,99567.75
2022-08-07T07:24:08.577Z,99557.19
2022-08-07T07:26:37.949Z,99574.59
2022-08-07T07:33:28.761Z,99588.50
2022-08-07T07:36:32.693Z,99577.38
2022-08-07T07:52:42.826Z,99569.56
2022-08-07T07:55:45.343Z,99575.28
2022-08-07T08:02:35.696Z,99574.47
2022-08-07T08:05:53.583Z,99573.72
2022-08-07T08:12:36.798Z,99585.25
2022-08-07T08:16:12.700Z,99602.66
2022-08-07T08:20:16.279Z,99573.69
2022-08-07T08:26:06.663Z,99558.19
2022-08-07T08:29:09.950Z,99574.81
2022-08-07T08:32:18.397Z,99599.19
2022-08-07T08:42:12.061Z,99585.69
2022-08-07T08:55:54.630Z,99578.47
2022-08-07T09:09:47.576Z,99579.78
2022-08-07T09:13:10.418Z,99544.06
2022-08-07T09:24:31.969Z,99561.75
2022-08-07T09:26:47.750Z,99546.88
2022-08-07T09:30:03.323Z,99547.16
2022-08-07T09:33:56.705Z,99553.72
2022-08-07T09:37:02.326Z,99542.16
2022-08-07T09:40:14.956Z,99540.06
2022-08-07T09:44:03.611Z,99559.66
2022-08-07T09:47:59.644Z,99532.16
2022-08-07T09:51:01.408Z,99542.06
2022-08-07T09:54:02.406Z,99538.16
2022-08-07T10:00:38.549Z,99530.03
2022-08-07T10:04:06.115Z,99515.63
2022-08-07T10:07:53.305Z,99542.81
2022-08-07T10:14:22.975Z,99520.31
2022-08-07T10:18:03.899Z,99538.19
2022-08-07T10:21:50.502Z,99521.38
2022-08-07T10:24:53.723Z,99529.97
2022-08-07T10:31:38.787Z,99510.53
2022-08-07T10:35:00.142Z,99526.41
2022-08-07T10:38:36.136Z,99513.94
2022-08-07T10:41:53.100Z,99494.66
2022-08-07T10:48:37.039Z,99488.69
2022-08-07T11:06:02.530Z,99487.50
2022-08-07T11:09:11.078Z,99481.75
2022-08-07T11:12:43.388Z,99484.09
2022-08-07T11:15:40.732Z,99485.28
2022-08-07T11:18:43.377Z,99467.13
2022-08-07T11:21:54.888Z,99464.75
2022-08-07T11:25:19.737Z,99453.88
2022-08-07T11:28:27.374Z,99453.03
2022-08-07T11:31:33.351Z,99477.31
2022-08-07T11:34:52.686Z,99466.16
2022-08-07T11:42:01.972Z,99454.69
2022-08-07T11:45:20.529Z,99473.28
2022-08-07T11:48:49.954Z,99476.22
2022-08-07T11:52:29.269Z,99482.34
2022-08-07T11:56:20.453Z,99453.34
2022-08-07T12:00:12.128Z,99429.53
2022-08-07T12:03:08.974Z,99452.22
2022-08-07T12:13:36.683Z,99453.56
2022-08-07T12:16:43.287Z,99456.28
2022-08-07T12:19:56.413Z,99444.91
2022-08-07T12:23:09.068Z,99442.31
2022-08-07T12:26:23.528Z,99417.78
2022-08-07T12:32:56.089Z,99431.72
2022-08-07T12:35:57.918Z,99427.78
2022-08-07T12:38:59.668Z,99439.28
2022-08-07T12:41:55.144Z,99446.75
2022-08-07T12:48:27.954Z,99433.47
2022-08-07T12:51:33.383Z,99429.31
2022-08-07T12:54:54.949Z,99440.88
2022-08-07T12:58:01.463Z,99435.66
2022-08-07T13:01:28.019Z,99443.22
2022-08-07T13:12:03.323Z,99428.44
2022-08-07T13:15:43.378Z,99438.88
2022-08-07T13:19:02.621Z,99408.53
2022-08-07T13:25:29.613Z,99389.16
2022-08-07T13:28:32.610Z,99394.84
2022-08-07T13:34:52.736Z,99428.94
2022-08-07T13:38:07.896Z,99400.00
2022-08-07T13:54:34.837Z,99409.38
2022-08-07T13:57:38.159Z,99390.53
2022-08-07T14:00:39.745Z,99374.25
2022-08-07T14:04:08.179Z,99382.19
2022-08-07T14:10:24.798Z,99372.56
2022-08-07T14:13:33.526Z,99388.84
2022-08-07T14:23:02.589Z,99389.25
2022-08-07T14:30:07.638Z,99371.44
2022-08-07T14:32:46.277Z,99373.91
2022-08-07T14:35:47.337Z,99375.78
2022-08-07T14:45:21.977Z,99372.44
2022-08-07T14:52:04.530Z,99423.13
2022-08-07T14:55:11.613Z,99399.03
2022-08-07T14:58:24.040Z,99395.78
2022-08-07T15:05:01.759Z,99393.84
2022-08-07T15:07:58.225Z,99384.09
2022-08-07T15:11:02.157Z,99371.28
2022-08-07T15:20:54.905Z,99386.63
2022-08-07T15:25:14.671Z,99381.97
2022-08-07T15:27:31.474Z,99396.94
2022-08-07T15:44:10.768Z,99366.72
2022-08-07T16:06:58.561Z,99381.75
2022-08-07T16:10:03.840Z,99402.94
2022-08-07T16:13:58.440Z,99386.16
2022-08-07T16:16:57.302Z,99398.25
2022-08-07T16:20:38.913Z,99425.09
2022-08-07T16:41:04.463Z,99415.38
2022-08-07T16:44:47.547Z,99442.56
2022-08-07T16:52:01.489Z,99415.91
2022-08-07T16:55:08.549Z,99430.72
2022-08-07T17:01:56.640Z,99448.81
2022-08-07T17:09:09.165Z,99427.09
2022-08-07T17:12:44.684Z,99421.31
2022-08-07T17:15:59.583Z,99446.38
2022-08-07T17:26:56.384Z,99452.22
2022-08-07T17:30:26.645Z,99438.50
2022-08-07T17:34:10.163Z,99435.69
2022-08-07T17:37:09.671Z,99450.66
2022-08-07T17:40:57.066Z,99449.19
2022-08-07T17:44:06.479Z,99424.38
2022-08-07T17:47:38.079Z,99405.63
2022-08-07T18:01:21.081Z,99442.44
2022-08-07T18:04:37.895Z,99419.13
2022-08-07T18:21:54.867Z,99413.03
2022-08-07T18:25:39.270Z,99434.91
2022-08-07T18:42:13.276Z,99417.56
2022-08-07T18:50:30.206Z,99420.44
2022-08-07T18:56:09.466Z,99444.66
2022-08-07T18:59:47.532Z,99466.16
2022-08-07T19:06:41.074Z,99476.19
2022-08-07T19:13:22.103Z,99479.31
2022-08-07T19:20:01.553Z,99519.44
2022-08-07T19:23:18.517Z,99506.06
2022-08-07T19:26:24.643Z,99496.91
2022-08-07T19:31:05.609Z,99478.94
2022-08-07T19:50:58.050Z,99506.25
2022-08-07T20:00:38.964Z,99491.19
2022-08-07T20:04:06.749Z,99472.16
2022-08-07T20:11:15.267Z,99511.09
2022-08-07T20:14:53.875Z,99483.97
2022-08-07T20:21:25.773Z,99504.63
2022-08-07T20:41:15.020Z,99503.66
2022-08-07T20:44:30.334Z,99508.97
2022-08-07T20:54:33.675Z,99508.16
2022-08-07T21:04:25.154Z,99529.50
2022-08-07T21:07:41.911Z,99491.41
2022-08-07T21:18:17.525Z,99508.41
2022-08-07T21:31:17.623Z,99512.66
2022-08-07T21:34:31.954Z,99520.66
2022-08-07T21:41:11.348Z,99504.75
2022-08-07T21:54:27.968Z,99507.44
2022-08-07T21:57:45.005Z,99510.19
2022-08-07T22:00:54.087Z,99491.56
2022-08-07T22:03:57.525Z,99518.94
2022-08-07T22:07:31.476Z,99518.69
2022-08-07T22:28:31.291Z,99499.59
2022-08-07T22:31:59.346Z,99493.56
2022-08-07T22:38:47.861Z,99504.38
2022-08-07T22:42:19.448Z,99514.66
2022-08-07T22:46:40.701Z,99520.63
2022-08-07T22:49:42.852Z,99513.44
2022-08-07T22:53:07.420Z,99505.72
2022-08-07T22:59:50.551Z,99513.44
2022-08-07T23:13:29.000Z,99517.91
2022-08-07T23:20:54.589Z,99517.44
2022-08-07T23:38:14.518Z,99508.00
2022-08-07T23:42:06.895Z,99509.22
2022-08-07T23:57:00.351Z,99494.13
